createdAt,value
2018-05-07T00:02:10.793Z,59.60
2018-05-07T00:04:39.045Z,59.09
2018-05-07T00:07:09.194Z,58.95
2018-05-07T00:09:38.817Z,59.54
2018-05-07T00:12:08.551Z,59.25
2018-05-07T00:14:36.801Z,59.29
2018-05-07T00:17:06.086Z,59.41
2018-05-07T00:19:34.324Z,59.40
2018-05-07T00:22:03.376Z,59.64
2018-05-07T00:24:31.618Z,59.67
2018-05-07T00:27:01.126Z,59.73
2018-05-07T00:29:30.126Z,59.72
2018-05-07T00:31:58.995Z,59.41
2018-05-07T00:34:28.024Z,59.55
2018-05-07T00:36:56.282Z,59.50
2018-05-07T00:39:24.540Z,59.69
2018-05-07T00:41:53.560Z,59.96
2018-05-07T00:44:22.417Z,60.23
2018-05-07T00:46:51.450Z,59.87
2018-05-07T00:49:19.696Z,59.94
2018-05-07T00:51:48.719Z,60.47
2018-05-07T00:54:19.159Z,60.81
2018-05-07T00:56:48.073Z,60.60
2018-05-07T00:59:16.336Z,60.67
2018-05-07T01:01:44.590Z,61.14
2018-05-07T01:04:12.839Z,61.68
2018-05-07T01:06:41.864Z,61.14
2018-05-07T01:09:10.107Z,60.85
2018-05-07T01:11:39.030Z,61.17
2018-05-07T01:14:07.278Z,60.74
2018-05-07T01:16:36.255Z,61.14
2018-05-07T01:19:05.281Z,61.47
2018-05-07T01:21:34.049Z,61.80
2018-05-07T01:24:02.298Z,61.39
2018-05-07T01:26:30.557Z,62.16
2018-05-07T01:28:58.814Z,61.88
2018-05-07T01:31:27.287Z,61.33
2018-05-07T01:33:57.177Z,61.73
2018-05-07T01:36:25.417Z,61.54
2018-05-07T01:38:53.757Z,61.86
2018-05-07T01:41:22.994Z,62.60
2018-05-07T01:43:51.801Z,62.50
2018-05-07T01:46:20.815Z,62.66
2018-05-07T01:48:50.066Z,63.27
2018-05-07T01:51:18.312Z,62.96
2018-05-07T01:53:50.304Z,63.39
2018-05-07T01:56:18.548Z,64.06
2018-05-07T01:58:47.029Z,64.20
2018-05-07T02:01:15.278Z,63.88
2018-05-07T02:03:43.526Z,63.73
2018-05-07T02:06:11.776Z,64.00
2018-05-07T02:08:40.018Z,64.17
2018-05-07T02:11:10.751Z,64.04
2018-05-07T02:13:39.000Z,63.83
2018-05-07T02:16:12.566Z,63.77
2018-05-07T02:18:41.063Z,63.73
2018-05-07T02:21:09.309Z,63.68
2018-05-07T02:23:37.556Z,63.44
2018-05-07T02:26:06.985Z,63.41
2018-05-07T02:28:35.234Z,63.52
2018-05-07T02:31:03.495Z,63.80
2018-05-07T02:33:33.121Z,63.98
2018-05-07T02:36:01.371Z,64.24
2018-05-07T02:38:30.397Z,63.89
2018-05-07T02:40:58.632Z,64.09
2018-05-07T02:43:27.655Z,64.17
2018-05-07T02:45:55.903Z,64.40
2018-05-07T02:48:24.932Z,64.19
2018-05-07T02:50:54.736Z,64.21
2018-05-07T02:53:22.989Z,64.40
2018-05-07T02:55:52.094Z,64.52
2018-05-07T02:58:21.554Z,64.44
2018-05-07T03:00:49.802Z,64.81
2018-05-07T03:03:18.054Z,64.95
2018-05-07T03:05:46.309Z,65.26
2018-05-07T03:08:15.319Z,65.30
2018-05-07T03:10:43.578Z,65.20
2018-05-07T03:13:12.606Z,65.18
2018-05-07T03:15:40.848Z,65.13
2018-05-07T03:18:09.974Z,65.45
2018-05-07T03:20:38.219Z,65.84
2018-05-07T03:23:08.217Z,65.67
2018-05-07T03:25:37.030Z,65.46
2018-05-07T03:28:05.280Z,65.64
2018-05-07T03:30:33.540Z,65.72
2018-05-07T03:33:02.693Z,65.66
2018-05-07T03:35:30.939Z,65.54
2018-05-07T03:37:59.960Z,65.82
2018-05-07T03:40:28.294Z,65.85
2018-05-07T03:42:58.002Z,66.50
2018-05-07T03:45:26.235Z,66.26
2018-05-07T03:47:54.481Z,66.21
2018-05-07T03:50:24.486Z,66.47
2018-05-07T03:52:53.522Z,66.81
2018-05-07T03:55:22.926Z,66.65
2018-05-07T03:57:51.178Z,66.43
2018-05-07T04:00:19.416Z,65.76
2018-05-07T04:02:47.673Z,65.87
2018-05-07T04:05:16.748Z,66.15
2018-05-07T04:07:44.987Z,66.15
2018-05-07T04:10:13.233Z,66.02
2018-05-07T04:12:41.485Z,65.82
2018-05-07T04:15:09.734Z,65.85
2018-05-07T04:17:56.549Z,65.67
2018-05-07T04:20:45.532Z,65.81
2018-05-07T04:23:32.212Z,65.33
2018-05-07T04:26:01.177Z,65.25
2018-05-07T04:28:30.196Z,65.18
2018-05-07T04:30:58.449Z,65.12
2018-05-07T04:33:28.530Z,64.90
2018-05-07T04:35:56.771Z,64.44
2018-05-07T04:38:25.018Z,65.07
2018-05-07T04:40:54.021Z,63.97
2018-05-07T04:43:22.277Z,64.72
2018-05-07T04:45:51.289Z,64.88
2018-05-07T04:48:20.226Z,65.25
2018-05-07T04:50:50.704Z,65.78
2018-05-07T04:53:19.721Z,65.72
2018-05-07T04:55:47.973Z,65.24
2018-05-07T04:58:16.216Z,65.45
2018-05-07T05:00:45.644Z,65.44
2018-05-07T05:03:15.329Z,65.35
2018-05-07T05:05:43.583Z,66.09
2018-05-07T05:08:11.823Z,66.08
2018-05-07T05:10:40.081Z,66.08
2018-05-07T05:13:09.989Z,65.59
2018-05-07T05:15:39.000Z,65.47
2018-05-07T05:18:07.250Z,65.45
2018-05-07T05:20:36.264Z,65.36
2018-05-07T05:23:05.143Z,65.05
2018-05-07T05:25:34.179Z,65.17
2018-05-07T05:28:02.431Z,65.05
2018-05-07T05:30:30.690Z,64.58
2018-05-07T05:32:59.692Z,64.06
2018-05-07T05:35:27.949Z,64.53
2018-05-07T05:37:56.961Z,63.76
2018-05-07T05:40:25.213Z,64.02
2018-05-07T05:42:55.134Z,63.63
2018-05-07T05:45:24.147Z,62.99
2018-05-07T05:47:52.473Z,63.45
2018-05-07T05:50:21.245Z,62.93
2018-05-07T05:52:50.050Z,62.69
2018-05-07T05:55:18.960Z,62.83
2018-05-07T05:57:48.414Z,62.38
2018-05-07T06:00:16.662Z,61.96
2018-05-07T06:02:45.672Z,61.92
2018-05-07T06:05:14.451Z,62.20
2018-05-07T06:07:43.271Z,62.22
2018-05-07T06:10:13.398Z,62.07
2018-05-07T06:12:43.149Z,62.24
2018-05-07T06:15:11.376Z,62.12
2018-05-07T06:17:44.303Z,62.36
2018-05-07T06:20:12.553Z,62.11
2018-05-07T06:22:40.799Z,62.46
2018-05-07T06:25:09.049Z,62.38
2018-05-07T06:27:38.877Z,61.67
2018-05-07T06:30:07.123Z,61.10
2018-05-07T06:32:36.139Z,61.02
2018-05-07T06:35:04.388Z,60.47
2018-05-07T06:37:34.085Z,60.49
2018-05-07T06:40:02.333Z,60.65
2018-05-07T06:42:30.585Z,59.76
2018-05-07T06:44:58.848Z,59.28
2018-05-07T06:47:27.101Z,60.12
2018-05-07T06:49:56.121Z,59.31
2018-05-07T06:52:24.373Z,58.07
2018-05-07T06:54:53.395Z,58.51
2018-05-07T06:57:22.664Z,57.89
2018-05-07T06:59:51.691Z,56.83
2018-05-07T07:02:19.969Z,56.99
2018-05-07T07:04:48.218Z,56.66
2018-05-07T07:07:17.234Z,56.18
2018-05-07T07:09:45.490Z,55.76
2018-05-07T07:12:14.504Z,56.70
2018-05-07T07:14:43.692Z,56.11
2018-05-07T07:17:11.942Z,55.27
2018-05-07T07:19:40.961Z,55.10
2018-05-07T07:22:09.205Z,54.64
2018-05-07T07:24:37.460Z,53.51
2018-05-07T07:27:06.789Z,53.45
2018-05-07T07:29:35.029Z,52.71
2018-05-07T07:32:03.295Z,53.47
2018-05-07T07:34:31.542Z,52.89
2018-05-07T07:36:59.789Z,52.10
2018-05-07T07:39:28.837Z,52.38
2018-05-07T07:41:57.834Z,53.78
2018-05-07T07:44:26.086Z,51.76
2018-05-07T07:46:54.345Z,52.42
2018-05-07T07:49:23.643Z,52.15
2018-05-07T07:51:52.653Z,51.81
2018-05-07T07:54:20.897Z,52.21
2018-05-07T07:56:49.908Z,52.09
2018-05-07T07:59:18.186Z,52.38
2018-05-07T08:01:46.408Z,51.82
2018-05-07T08:04:15.293Z,51.60
2018-05-07T08:06:44.185Z,51.18
2018-05-07T08:09:12.429Z,51.59
2018-05-07T08:11:40.777Z,51.21
2018-05-07T08:14:09.777Z,50.78
2018-05-07T08:16:38.792Z,51.66
2018-05-07T08:19:07.578Z,51.44
2018-05-07T08:21:35.827Z,51.27
2018-05-07T08:24:05.898Z,51.28
2018-05-07T08:26:35.074Z,50.67
2018-05-07T08:29:03.325Z,51.12
2018-05-07T08:31:33.414Z,50.20
2018-05-07T08:34:02.505Z,50.92
2018-05-07T08:36:32.323Z,50.58
2018-05-07T08:39:01.423Z,49.52
2018-05-07T08:41:30.489Z,49.66
2018-05-07T08:43:58.732Z,48.77
2018-05-07T08:46:27.005Z,49.47
2018-05-07T08:48:56.258Z,49.78
2018-05-07T08:51:25.541Z,49.36
2018-05-07T08:53:54.009Z,47.48
2018-05-07T08:56:22.262Z,47.35
2018-05-07T08:58:51.380Z,47.48
2018-05-07T09:01:19.664Z,45.04
2018-05-07T09:03:48.103Z,45.82
2018-05-07T09:06:16.346Z,46.08
2018-05-07T09:08:44.592Z,45.05
2018-05-07T09:11:12.835Z,43.89
2018-05-07T09:13:41.110Z,43.95
2018-05-07T09:16:10.130Z,44.29
2018-05-07T09:18:38.376Z,42.67
2018-05-07T09:21:06.644Z,42.79
2018-05-07T09:23:35.108Z,41.32
2018-05-07T09:26:03.343Z,42.58
2018-05-07T09:28:31.604Z,42.54
2018-05-07T09:31:03.579Z,41.85
2018-05-07T09:33:31.851Z,41.71
2018-05-07T09:36:00.220Z,40.86
2018-05-07T09:38:28.456Z,39.84
2018-05-07T09:40:57.472Z,40.56
2018-05-07T09:43:25.731Z,40.47
2018-05-07T09:45:54.740Z,40.79
2018-05-07T09:48:24.148Z,41.20
2018-05-07T09:50:52.897Z,41.16
2018-05-07T09:53:21.680Z,38.90
2018-05-07T09:55:50.475Z,40.11
2018-05-07T09:58:19.481Z,39.23
2018-05-07T10:00:48.504Z,39.78
2018-05-07T10:03:16.756Z,38.54
2018-05-07T10:05:45.687Z,38.39
2018-05-07T10:08:14.975Z,38.47
2018-05-07T10:10:44.319Z,38.09
2018-05-07T10:13:13.329Z,39.67
2018-05-07T10:15:43.282Z,40.25
2018-05-07T10:18:12.077Z,38.41
2018-05-07T10:20:40.326Z,38.64
2018-05-07T10:23:08.577Z,37.55
2018-05-07T10:25:37.595Z,37.88
2018-05-07T10:28:05.857Z,37.16
2018-05-07T10:30:35.690Z,36.82
2018-05-07T10:33:03.938Z,38.83
2018-05-07T10:35:32.969Z,37.51
2018-05-07T10:38:01.226Z,37.91
2018-05-07T10:40:30.656Z,39.18
2018-05-07T10:42:58.909Z,39.06
2018-05-07T10:45:27.159Z,39.23
2018-05-07T10:47:56.186Z,39.45
2018-05-07T10:50:25.006Z,36.75
2018-05-07T10:52:53.264Z,38.78
2018-05-07T10:55:21.528Z,39.16
2018-05-07T10:57:49.781Z,38.60
2018-05-07T11:00:18.797Z,38.35
2018-05-07T11:02:47.596Z,36.29
2018-05-07T11:05:16.065Z,35.14
2018-05-07T11:07:44.313Z,35.32
2018-05-07T11:10:13.326Z,35.51
2018-05-07T11:12:41.855Z,34.29
2018-05-07T11:15:10.098Z,34.30
2018-05-07T11:17:39.430Z,33.25
2018-05-07T11:20:07.673Z,33.26
2018-05-07T11:22:35.940Z,33.78
2018-05-07T11:25:04.180Z,35.59
2018-05-07T11:27:34.221Z,36.12
2018-05-07T11:30:02.473Z,34.35
2018-05-07T11:32:31.485Z,32.59
2018-05-07T11:34:59.741Z,32.44
2018-05-07T11:37:28.761Z,33.41
2018-05-07T11:39:57.007Z,29.35
2018-05-07T11:42:27.211Z,30.13
2018-05-07T11:44:56.244Z,30.50
2018-05-07T11:47:24.535Z,30.37
2018-05-07T11:49:52.733Z,30.59
2018-05-07T11:52:20.975Z,30.15
2018-05-07T11:54:49.225Z,31.53
2018-05-07T11:57:18.228Z,32.41
2018-05-07T11:59:47.008Z,30.91
2018-05-07T12:02:16.568Z,29.71
2018-05-07T12:04:44.825Z,31.89
2018-05-07T12:07:13.071Z,31.06
2018-05-07T12:09:42.792Z,28.01
2018-05-07T12:12:11.040Z,28.81
2018-05-07T12:14:43.769Z,27.92
2018-05-07T12:17:12.018Z,29.90
2018-05-07T12:19:40.256Z,28.42
2018-05-07T12:22:08.518Z,28.35
2018-05-07T12:24:36.866Z,28.32
2018-05-07T12:27:05.116Z,29.50
2018-05-07T12:29:33.933Z,29.78
2018-05-07T12:32:02.178Z,28.24
2018-05-07T12:34:31.187Z,30.10
2018-05-07T12:36:59.436Z,28.22
2018-05-07T12:39:29.060Z,29.84
2018-05-07T12:41:57.313Z,30.41
2018-05-07T12:44:25.566Z,29.78
2018-05-07T12:46:53.907Z,28.76
2018-05-07T12:49:22.280Z,29.17
2018-05-07T12:51:51.138Z,28.75
2018-05-07T12:54:20.147Z,27.54
2018-05-07T12:56:52.220Z,28.23
2018-05-07T12:59:20.714Z,28.10
2018-05-07T13:01:49.267Z,29.90
2018-05-07T13:04:17.760Z,26.06
2018-05-07T13:06:46.186Z,26.60
2018-05-07T13:09:15.207Z,25.70
2018-05-07T13:11:45.012Z,27.20
2018-05-07T13:14:14.054Z,25.50
2018-05-07T13:16:46.072Z,25.53
2018-05-07T13:19:15.011Z,25.04
2018-05-07T13:21:43.260Z,25.44
2018-05-07T13:24:12.280Z,25.75
2018-05-07T13:26:42.563Z,25.26
2018-05-07T13:29:11.584Z,24.74
2018-05-07T13:31:39.832Z,25.61
2018-05-07T13:34:08.849Z,26.14
2018-05-07T13:36:37.097Z,25.82
2018-05-07T13:39:07.037Z,24.98
2018-05-07T13:41:35.915Z,25.25
2018-05-07T13:44:04.922Z,24.27
2018-05-07T13:46:33.170Z,24.58
2018-05-07T13:49:01.422Z,25.06
2018-05-07T13:51:30.273Z,24.44
2018-05-07T13:53:58.520Z,24.76
2018-05-07T13:56:27.540Z,27.02
2018-05-07T13:58:55.784Z,24.51
2018-05-07T14:01:25.399Z,24.95
2018-05-07T14:03:55.477Z,25.08
2018-05-07T14:06:24.503Z,24.65
2018-05-07T14:08:53.525Z,23.14
2018-05-07T14:11:21.777Z,22.63
2018-05-07T14:13:50.794Z,23.23
2018-05-07T14:16:19.673Z,24.48
2018-05-07T14:18:49.414Z,23.86
2018-05-07T14:21:18.850Z,23.60
2018-05-07T14:23:47.084Z,24.44
2018-05-07T14:26:15.374Z,24.63
2018-05-07T14:28:44.351Z,25.07
2018-05-07T14:31:12.597Z,23.01
2018-05-07T14:33:42.162Z,25.79
2018-05-07T14:36:11.921Z,23.69
2018-05-07T14:38:40.998Z,23.28
2018-05-07T14:41:09.180Z,21.77
2018-05-07T14:43:39.136Z,21.44
2018-05-07T14:46:07.421Z,22.36
2018-05-07T14:48:35.678Z,21.86
2018-05-07T14:51:05.809Z,21.52
2018-05-07T14:56:06.981Z,22.87
2018-05-07T14:58:36.285Z,22.14
2018-05-07T15:01:04.494Z,24.19
2018-05-07T15:03:33.509Z,24.67
2018-05-07T15:06:01.857Z,23.95
2018-05-07T15:08:30.718Z,24.78
2018-05-07T15:10:59.801Z,23.33
2018-05-07T15:13:29.570Z,24.64
2018-05-07T15:15:58.797Z,22.76
2018-05-07T15:18:27.037Z,24.46
2018-05-07T15:20:57.175Z,24.88
2018-05-07T15:23:25.433Z,23.86
2018-05-07T15:25:55.061Z,22.98
2018-05-07T15:28:23.309Z,23.64
2018-05-07T15:30:51.557Z,23.03
2018-05-07T15:33:19.800Z,22.19
2018-05-07T15:35:48.682Z,22.46
2018-05-07T15:38:18.091Z,23.52
2018-05-07T15:40:46.336Z,23.14
2018-05-07T15:43:15.568Z,23.53
2018-05-07T15:45:43.904Z,23.60
2018-05-07T15:48:12.147Z,24.21
2018-05-07T15:50:40.400Z,24.74
2018-05-07T15:53:08.765Z,24.48
2018-05-07T15:55:37.010Z,23.56
2018-05-07T15:58:06.851Z,22.76
2018-05-07T16:00:35.118Z,23.32
2018-05-07T16:03:03.488Z,23.15
2018-05-07T16:05:32.385Z,23.98
2018-05-07T16:08:03.283Z,22.72
2018-05-07T16:10:32.629Z,22.88
2018-05-07T16:13:01.104Z,22.12
2018-05-07T16:15:30.127Z,22.40
2018-05-07T16:17:58.381Z,22.02
2018-05-07T16:20:29.276Z,21.69
2018-05-07T16:22:57.509Z,19.95
2018-05-07T16:25:25.754Z,20.85
2018-05-07T16:27:54.765Z,21.36
2018-05-07T16:30:23.522Z,21.42
2018-05-07T16:32:51.766Z,21.13
2018-05-07T16:35:20.010Z,22.04
2018-05-07T16:37:51.597Z,22.28
2018-05-07T16:40:19.859Z,21.84
2018-05-07T16:42:48.853Z,22.13
2018-05-07T16:45:17.813Z,20.68
2018-05-07T16:47:46.083Z,22.28
2018-05-07T16:50:14.331Z,22.30
2018-05-07T16:52:43.348Z,21.21
2018-05-07T16:55:12.505Z,20.80
2018-05-07T16:57:40.766Z,20.38
2018-05-07T17:00:09.009Z,20.41
2018-05-07T17:02:37.270Z,20.68
2018-05-07T17:05:06.282Z,21.42
2018-05-07T17:07:34.531Z,21.21
2018-05-07T17:10:04.260Z,22.17
2018-05-07T17:12:33.707Z,22.31
2018-05-07T17:15:01.958Z,21.55
2018-05-07T17:17:30.218Z,21.22
2018-05-07T17:19:58.480Z,22.67
2018-05-07T17:22:26.725Z,22.65
2018-05-07T17:24:55.571Z,22.50
2018-05-07T17:27:25.085Z,22.29
2018-05-07T17:29:53.339Z,22.96
2018-05-07T17:32:21.589Z,24.68
2018-05-07T17:34:50.617Z,26.58
2018-05-07T17:37:18.873Z,28.14
2018-05-07T17:39:47.852Z,28.85
2018-05-07T17:42:16.862Z,28.93
2018-05-07T17:45:04.619Z,29.19
2018-05-07T17:47:50.637Z,29.50
2018-05-07T17:50:18.900Z,29.61
2018-05-07T17:52:47.151Z,29.96
2018-05-07T17:55:15.406Z,30.19
2018-05-07T17:57:44.405Z,30.24
2018-05-07T18:00:12.667Z,30.79
2018-05-07T18:02:41.689Z,30.50
2018-05-07T18:05:09.939Z,30.83
2018-05-07T18:07:38.956Z,30.78
2018-05-07T18:10:09.416Z,31.37
2018-05-07T18:12:37.662Z,31.32
2018-05-07T18:15:05.920Z,31.87
2018-05-07T18:17:34.172Z,32.24
2018-05-07T18:20:03.194Z,32.42
2018-05-07T18:22:32.129Z,32.66
2018-05-07T18:25:00.390Z,33.14
2018-05-07T18:27:28.642Z,33.58
2018-05-07T18:29:59.118Z,33.51
2018-05-07T18:32:28.208Z,33.32
2018-05-07T18:34:57.145Z,33.75
2018-05-07T18:37:26.626Z,33.63
2018-05-07T18:39:56.662Z,34.12
2018-05-07T18:42:25.589Z,34.00
2018-05-07T18:44:53.841Z,34.03
2018-05-07T18:47:22.108Z,34.51
2018-05-07T18:49:50.370Z,34.11
2018-05-07T18:52:19.377Z,34.19
2018-05-07T18:54:47.694Z,34.11
2018-05-07T18:57:15.951Z,34.53
2018-05-07T18:59:45.234Z,34.61
2018-05-07T19:02:14.946Z,34.29
2018-05-07T19:04:43.894Z,34.26
2018-05-07T19:07:12.329Z,33.97
2018-05-07T19:09:42.321Z,34.09
2018-05-07T19:12:11.334Z,34.17
2018-05-07T19:14:39.581Z,34.36
2018-05-07T19:17:09.321Z,34.40
2018-05-07T19:19:37.578Z,34.67
2018-05-07T19:22:05.825Z,35.40
2018-05-07T19:24:34.845Z,35.56
2018-05-07T19:27:03.105Z,35.03
2018-05-07T19:29:32.354Z,34.98
2018-05-07T19:32:01.565Z,35.48
2018-05-07T19:34:29.818Z,34.90
2018-05-07T19:36:58.074Z,35.05
2018-05-07T19:39:26.327Z,35.78
2018-05-07T19:41:55.342Z,36.56
2018-05-07T19:44:23.593Z,37.52
2018-05-07T19:46:51.901Z,37.63
2018-05-07T19:49:20.173Z,38.88
2018-05-07T19:51:49.178Z,39.53
2018-05-07T19:54:17.424Z,41.04
2018-05-07T19:56:46.472Z,41.42
2018-05-07T19:59:14.711Z,42.53
2018-05-07T20:01:42.969Z,43.12
2018-05-07T20:04:11.995Z,43.82
2018-05-07T20:06:40.253Z,44.22
2018-05-07T20:09:09.078Z,44.69
2018-05-07T20:11:37.333Z,44.96
2018-05-07T20:14:05.581Z,45.64
2018-05-07T20:16:34.607Z,46.12
2018-05-07T20:19:02.859Z,46.44
2018-05-07T20:21:31.125Z,46.50
2018-05-07T20:24:00.135Z,46.73
2018-05-07T20:26:28.393Z,47.16
2018-05-07T20:28:56.640Z,47.54
2018-05-07T20:31:24.896Z,48.11
2018-05-07T20:33:53.836Z,48.32
2018-05-07T20:36:22.857Z,48.90
2018-05-07T20:38:51.113Z,49.07
2018-05-07T20:41:19.929Z,49.39
2018-05-07T20:43:48.312Z,49.15
2018-05-07T20:46:16.567Z,49.64
2018-05-07T20:48:44.812Z,50.01
2018-05-07T20:51:13.837Z,50.24
2018-05-07T20:53:42.093Z,50.41
2018-05-07T20:56:11.105Z,50.61
2018-05-07T20:58:39.353Z,50.93
2018-05-07T21:01:08.382Z,51.20
2018-05-07T21:03:36.635Z,51.30
2018-05-07T21:06:04.879Z,51.71
2018-05-07T21:08:33.139Z,51.80
2018-05-07T21:11:01.397Z,52.01
2018-05-07T21:13:29.662Z,52.34
2018-05-07T21:15:57.917Z,52.59
2018-05-07T21:18:26.183Z,52.78
2018-05-07T21:20:56.329Z,53.08
2018-05-07T21:23:24.583Z,53.11
2018-05-07T21:25:52.841Z,53.47
2018-05-07T21:28:21.863Z,54.01
2018-05-07T21:30:50.112Z,54.56
2018-05-07T21:33:19.693Z,54.62
2018-05-07T21:35:47.985Z,54.76
2018-05-07T21:38:16.817Z,55.04
2018-05-07T21:40:45.576Z,56.00
2018-05-07T21:43:14.580Z,56.40
2018-05-07T21:45:42.828Z,57.17
2018-05-07T21:48:11.854Z,58.35
2018-05-07T21:50:40.111Z,58.33
2018-05-07T21:53:09.859Z,58.73
2018-05-07T21:55:38.110Z,58.79
2018-05-07T21:58:06.377Z,58.19
2018-05-07T22:00:36.223Z,56.82
2018-05-07T22:03:05.467Z,56.07
2018-05-07T22:05:34.761Z,55.55
2018-05-07T22:08:04.232Z,55.56
2018-05-07T22:10:32.471Z,55.58
2018-05-07T22:13:01.653Z,55.31
2018-05-07T22:15:33.667Z,55.54
2018-05-07T22:18:02.853Z,55.96
2018-05-07T22:20:31.855Z,55.96
2018-05-07T22:23:00.391Z,55.29
2018-05-07T22:25:29.412Z,55.56
2018-05-07T22:27:57.659Z,55.60
2018-05-07T22:30:26.687Z,55.86
2018-05-07T22:32:55.566Z,55.94
2018-05-07T22:35:24.598Z,56.08
2018-05-07T22:37:52.836Z,56.36
2018-05-07T22:40:21.099Z,56.62
2018-05-07T22:42:49.585Z,56.95
2018-05-07T22:45:19.051Z,57.20
2018-05-07T22:47:50.827Z,57.39
2018-05-07T22:50:19.852Z,57.13
2018-05-07T22:52:48.114Z,57.21
2018-05-07T22:55:21.951Z,57.28
2018-05-07T22:57:50.211Z,57.13
2018-05-07T23:00:19.670Z,56.73
2018-05-07T23:02:48.626Z,56.76
2018-05-07T23:05:17.425Z,56.40
2018-05-07T23:07:45.674Z,56.17
2018-05-07T23:10:13.933Z,56.47
2018-05-07T23:12:42.190Z,56.33
2018-05-07T23:15:12.098Z,55.65
2018-05-07T23:17:41.125Z,55.51
2018-05-07T23:20:09.374Z,55.38
2018-05-07T23:22:38.406Z,55.06
2018-05-07T23:25:06.652Z,55.66
2018-05-07T23:27:34.913Z,55.94
2018-05-07T23:30:03.936Z,56.38
2018-05-07T23:32:32.196Z,56.29
2018-05-07T23:35:00.448Z,55.91
2018-05-07T23:37:29.352Z,55.95
2018-05-07T23:39:58.373Z,56.23
2018-05-07T23:42:26.638Z,55.75
2018-05-07T23:44:54.893Z,55.88
2018-05-07T23:47:24.149Z,55.79
2018-05-07T23:49:52.403Z,55.20
2018-05-07T23:52:20.661Z,55.22
2018-05-07T23:54:48.914Z,55.11
2018-05-07T23:57:18.964Z,55.60
2018-05-07T23:59:47.785Z,56.33
